Time;durP1;ratioP1;P1;durP2;ratioP2;P2;SDS_P1;SDS_P2;PMS_P1;PMS_P2;Temp;Humidity;BMP_temperature;BMP_pressure;BME280_temperature;BME280_humidity;BME280_pressure;Samples;Min_cycle;Max_cycle;Signal;HPM_P1;HPM_P2
2021/05/08 00:01:46;;;;;;;8.35;5.97;;;;;;;4.96;67.87;96580.85;1709036;82;21123;-80
2021/05/08 00:04:12;;;;;;;7.65;5.67;;;;;;;4.93;68.00;96597.88;1715356;82;21092;-80
2021/05/08 00:06:38;;;;;;;7.62;6.00;;;;;;;4.87;67.81;96601.81;1747254;81;21106;-80
2021/05/08 00:09:07;;;;;;;6.45;5.85;;;;;;;4.83;67.95;96600.00;1752225;80;21146;-80
2021/05/08 00:11:34;;;;;;;8.23;5.17;;;;;;;4.80;68.18;96609.77;1763360;80;21265;-80
2021/05/08 00:14:02;;;;;;;7.35;5.85;;;;;;;4.78;68.06;96616.83;1781073;80;21134;-80
2021/05/08 00:16:28;;;;;;;7.53;5.50;;;;;;;4.76;68.26;96618.25;1752708;80;21110;-80
2021/05/08 00:18:54;;;;;;;7.58;6.08;;;;;;;4.74;68.17;96617.59;1775520;80;21059;-80
2021/05/08 00:21:20;;;;;;;6.37;5.12;;;;;;;4.72;68.12;96618.69;1782656;80;21097;-80
2021/05/08 00:23:46;;;;;;;5.75;4.58;;;;;;;4.66;67.98;96611.50;1765082;80;21066;-80
2021/05/08 00:26:12;;;;;;;5.10;4.47;;;;;;;4.60;68.15;96614.16;1759424;80;21107;-80
2021/05/08 00:28:39;;;;;;;5.90;4.80;;;;;;;4.54;68.09;96622.42;1761661;80;21291;-80
2021/05/08 00:31:05;;;;;;;7.87;5.17;;;;;;;4.51;68.14;96620.94;1780544;80;21111;-80
2021/05/08 00:33:31;;;;;;;6.55;4.85;;;;;;;4.51;68.19;96625.27;1759733;80;21104;-80
2021/05/08 00:35:57;;;;;;;6.62;5.37;;;;;;;4.52;68.22;96628.18;1759561;80;21142;-80
2021/05/08 00:38:23;;;;;;;6.25;4.65;;;;;;;4.51;68.16;96628.66;1759482;80;21221;-80
2021/05/08 00:40:49;;;;;;;7.33;4.55;;;;;;;4.55;68.05;96635.62;1776210;80;21404;-80
2021/05/08 00:43:16;;;;;;;6.47;4.83;;;;;;;4.56;68.07;96638.56;1757014;80;21317;-80
2021/05/08 00:45:42;;;;;;;7.53;5.78;;;;;;;4.57;68.23;96640.18;1780286;80;21108;-80
2021/05/08 00:48:13;;;;;;;7.00;5.17;;;;;;;4.57;68.34;96640.66;1758840;80;21151;-80
2021/05/08 00:50:40;;;;;;;7.40;5.72;;;;;;;4.58;68.27;96638.42;1768093;80;21226;-79
2021/05/08 00:53:07;;;;;;;7.78;5.00;;;;;;;4.62;68.42;96639.76;1762181;80;21102;-80
2021/05/08 00:55:38;;;;;;;7.20;4.90;;;;;;;4.64;68.38;96644.29;1729449;82;21114;-80
2021/05/08 00:58:07;;;;;;;6.50;5.65;;;;;;;4.61;68.30;96637.66;1758717;80;21129;-80
2021/05/08 01:00:35;;;;;;;7.40;5.08;;;;;;;4.62;68.31;96640.57;1758898;80;21099;-80
2021/05/08 01:03:01;;;;;;;6.03;4.92;;;;;;;4.60;68.43;96636.04;1759230;80;21087;-80
2021/05/08 01:05:32;;;;;;;5.90;4.45;;;;;;;4.61;68.49;96639.42;1760218;80;21090;-80
2021/05/08 01:07:56;;;;;;;6.12;5.10;;;;;;;4.60;68.31;96637.80;1759746;80;21483;-79
2021/05/08 01:10:22;;;;;;;7.28;5.47;;;;;;;4.62;68.32;96634.61;1780942;80;21220;-80
2021/05/08 01:12:49;;;;;;;7.47;5.05;;;;;;;4.66;68.52;96641.09;1789203;80;21090;-80
2021/05/08 01:15:16;;;;;;;7.22;5.28;;;;;;;4.66;68.48;96634.19;1696909;82;21079;-80
2021/05/08 01:17:43;;;;;;;7.33;5.58;;;;;;;4.66;68.48;96634.66;1774591;80;21294;-80
2021/05/08 01:20:11;;;;;;;6.12;5.12;;;;;;;4.66;68.58;96635.95;1721244;82;21088;-80
2021/05/08 01:22:40;;;;;;;7.85;5.30;;;;;;;4.67;68.73;96635.81;1773046;80;21205;-80
2021/05/08 01:25:11;;;;;;;5.53;4.97;;;;;;;4.66;68.61;96637.23;1751701;80;21252;-80
2021/05/08 01:27:46;;;;;;;8.08;5.35;;;;;;;4.67;68.64;96638.86;1752192;80;21067;-80
2021/05/08 01:30:15;;;;;;;8.15;6.25;;;;;;;4.66;68.65;96636.77;1750899;80;21222;-80
2021/05/08 01:32:41;;;;;;;6.53;5.60;;;;;;;4.71;68.71;96645.34;1750999;81;21121;-80
2021/05/08 01:35:08;;;;;;;5.28;4.55;;;;;;;4.74;68.61;96651.05;1750896;81;21199;-80
2021/05/08 01:37:34;;;;;;;5.87;5.28;;;;;;;4.79;68.73;96650.62;1751045;81;21075;-80
2021/05/08 01:40:06;;;;;;;6.37;4.90;;;;;;;4.83;68.55;96652.78;1751213;80;21354;-80
2021/05/08 01:42:33;;;;;;;6.15;4.75;;;;;;;4.86;68.61;96649.58;1751021;81;21092;-79
2021/05/08 01:45:17;;;;;;;6.62;5.15;;;;;;;4.86;68.47;96652.16;1755144;80;21114;-80
2021/05/08 01:47:43;;;;;;;7.25;5.58;;;;;;;4.83;68.79;96657.92;1766220;80;21087;-80
2021/05/08 01:50:12;;;;;;;7.00;4.92;;;;;;;4.82;68.77;96658.06;1773071;80;21094;-79
2021/05/08 01:52:39;;;;;;;5.87;4.97;;;;;;;4.82;68.75;96660.16;1783497;80;21146;-80
2021/05/08 01:55:18;;;;;;;6.75;4.62;;;;;;;4.81;68.61;96661.59;1720907;82;21115;-80
2021/05/08 01:57:49;;;;;;;6.22;5.55;;;;;;;4.79;68.73;96661.73;1768533;80;21103;-80
2021/05/08 02:00:26;;;;;;;5.90;5.20;;;;;;;4.77;68.76;96665.41;1752184;80;21111;-80
2021/05/08 02:02:53;;;;;;;5.85;4.78;;;;;;;4.78;68.91;96663.98;1751222;80;21214;-80
2021/05/08 02:05:21;;;;;;;7.47;5.30;;;;;;;4.78;68.63;96669.13;1763833;80;21107;-80
2021/05/08 02:07:50;;;;;;;7.83;5.45;;;;;;;4.80;68.61;96663.36;1754299;80;21233;-80
2021/05/08 02:10:16;;;;;;;7.65;5.30;;;;;;;4.83;68.54;96662.27;1766448;81;21068;-80
2021/05/08 02:12:42;;;;;;;6.80;5.47;;;;;;;4.85;68.55;96669.37;1778471;80;21118;-80
2021/05/08 02:15:11;;;;;;;5.80;4.65;;;;;;;4.90;68.82;96665.11;1760792;80;21091;-80
2021/05/08 02:17:37;;;;;;;6.50;4.80;;;;;;;4.90;68.72;96667.69;1777573;81;21107;-80
2021/05/08 02:20:08;;;;;;;6.22;5.25;;;;;;;4.88;68.40;96669.56;1758947;80;21237;-80
2021/05/08 02:22:34;;;;;;;5.97;5.00;;;;;;;4.82;68.44;96672.23;1762039;80;21547;-80
2021/05/08 02:25:00;;;;;;;5.25;4.70;;;;;;;4.82;68.51;96670.94;1763769;80;21205;-80
2021/05/08 02:27:26;;;;;;;8.15;5.25;;;;;;;4.81;68.43;96675.28;1751527;80;21215;-79
2021/05/08 02:29:52;;;;;;;8.33;5.22;;;;;;;4.81;68.41;96670.13;1763899;80;21086;-79
2021/05/08 02:32:18;;;;;;;6.03;5.08;;;;;;;4.86;68.35;96677.42;1759754;80;21098;-79
2021/05/08 02:34:44;;;;;;;5.92;5.00;;;;;;;4.92;68.36;96681.23;1751511;80;21099;-80
2021/05/08 02:37:10;;;;;;;5.72;4.42;;;;;;;4.93;68.32;96680.28;1750830;80;21086;-80
2021/05/08 02:39:36;;;;;;;5.15;4.58;;;;;;;4.92;68.27;96687.19;1752081;80;21076;-80
2021/05/08 02:42:04;;;;;;;6.70;5.25;;;;;;;4.88;68.16;96679.86;1756583;80;21107;-80
2021/05/08 02:44:30;;;;;;;4.20;3.77;;;;;;;4.81;68.16;96687.34;1727107;83;21107;-79
2021/05/08 02:46:56;;;;;;;5.17;4.08;;;;;;;4.79;68.36;96687.95;1691192;82;21242;-80
2021/05/08 02:49:22;;;;;;;5.70;4.33;;;;;;;4.73;68.24;96691.91;1776659;81;21091;-80
2021/05/08 02:51:47;;;;;;;5.45;4.53;;;;;;;4.71;68.43;96702.78;1754972;80;21098;-80
2021/05/08 02:54:13;;;;;;;5.45;4.80;;;;;;;4.68;68.50;96704.83;1711931;83;21311;-81
2021/05/08 02:56:40;;;;;;;6.00;4.90;;;;;;;4.65;68.53;96712.83;1693742;83;21162;-81
2021/05/08 02:59:05;;;;;;;6.28;4.65;;;;;;;4.68;68.62;96712.08;1705859;83;21336;-82
2021/05/08 03:01:32;;;;;;;7.12;4.80;;;;;;;4.73;68.52;96716.84;1747225;80;21135;-81
2021/05/08 03:03:58;;;;;;;6.08;5.00;;;;;;;4.74;68.50;96717.98;1771461;80;21110;-81
2021/05/08 03:06:24;;;;;;;6.05;4.97;;;;;;;4.74;68.16;96716.70;1759641;80;21204;-81
2021/05/08 03:08:50;;;;;;;8.00;5.50;;;;;;;4.77;68.35;96722.85;1714014;82;21239;-81
2021/05/08 03:11:16;;;;;;;6.60;5.00;;;;;;;4.81;68.41;96725.48;1756272;80;21104;-81
2021/05/08 03:13:42;;;;;;;5.00;4.22;;;;;;;4.85;68.49;96729.88;1754316;80;21095;-82
2021/05/08 03:16:09;;;;;;;5.72;4.53;;;;;;;4.86;68.24;96734.55;1767376;80;21346;-81
2021/05/08 03:18:35;;;;;;;6.58;5.20;;;;;;;4.81;68.59;96732.39;1771248;80;21106;-81
2021/05/08 03:21:01;;;;;;;6.12;4.92;;;;;;;4.81;68.59;96732.39;1758626;80;21225;-81
2021/05/08 03:23:27;;;;;;;5.55;4.90;;;;;;;4.83;68.56;96737.73;1758150;80;21216;-82
2021/05/08 03:25:53;;;;;;;6.20;4.83;;;;;;;4.83;68.59;96740.79;1758008;80;21094;-81
2021/05/08 03:28:19;;;;;;;5.47;4.70;;;;;;;4.85;68.39;96738.08;1758517;80;21228;-81
2021/05/08 03:30:46;;;;;;;7.03;4.72;;;;;;;4.91;68.43;96742.70;1728855;80;21078;-82
2021/05/08 03:33:12;;;;;;;4.62;4.12;;;;;;;4.95;68.21;96750.00;1758584;80;21081;-81
2021/05/08 03:35:37;;;;;;;4.90;4.40;;;;;;;4.96;68.00;96752.09;1758106;80;21118;-82
2021/05/08 03:38:03;;;;;;;5.60;4.62;;;;;;;4.95;68.09;96750.00;1759230;80;21091;-81
2021/05/08 03:40:30;;;;;;;5.53;4.25;;;;;;;4.97;68.26;96756.30;1769921;80;21106;-81
2021/05/08 03:42:56;;;;;;;5.10;4.60;;;;;;;4.96;68.14;96754.20;1783914;80;21293;-81
2021/05/08 03:45:22;;;;;;;5.22;4.47;;;;;;;4.96;67.96;96758.06;1760467;80;21245;-81
2021/05/08 03:47:48;;;;;;;4.97;3.92;;;;;;;4.96;68.12;96755.48;1758151;80;21113;-82
2021/05/08 03:50:14;;;;;;;4.90;4.40;;;;;;;4.97;68.24;96760.16;1770815;80;21321;-81
2021/05/08 03:52:40;;;;;;;5.03;4.37;;;;;;;4.97;68.13;96758.88;1785073;80;21117;-82
2021/05/08 03:55:07;;;;;;;4.92;4.42;;;;;;;4.96;68.29;96763.21;1786345;80;21067;-81
2021/05/08 03:57:33;;;;;;;4.80;4.05;;;;;;;4.96;68.30;96763.69;1764895;80;21322;-82
2021/05/08 03:59:59;;;;;;;5.15;4.35;;;;;;;4.94;67.87;96764.30;1758575;80;21090;-82
2021/05/08 04:02:25;;;;;;;4.72;4.15;;;;;;;4.97;67.99;96764.83;1764977;80;21099;-81
2021/05/08 04:04:51;;;;;;;4.15;3.75;;;;;;;5.01;68.21;96766.66;1759215;80;21130;-82
2021/05/08 04:07:17;;;;;;;4.50;3.60;;;;;;;5.03;68.17;96769.90;1758010;80;21094;-82
2021/05/08 04:09:43;;;;;;;4.92;4.20;;;;;;;5.03;68.12;96769.90;1774286;80;21427;-81
2021/05/08 04:12:09;;;;;;;5.17;3.65;;;;;;;5.06;68.33;96778.19;1729854;82;21388;-81
2021/05/08 04:14:35;;;;;;;4.87;3.52;;;;;;;5.03;68.02;96779.73;1774507;80;21077;-82
2021/05/08 04:17:01;;;;;;;6.25;4.05;;;;;;;5.02;67.96;96776.81;1788012;80;21248;-81
2021/05/08 04:19:27;;;;;;;5.90;5.15;;;;;;;5.02;67.99;96782.44;1771358;80;21345;-81
2021/05/08 04:21:53;;;;;;;5.28;4.60;;;;;;;5.00;67.72;96780.48;1772154;80;21063;-81
2021/05/08 04:24:19;;;;;;;4.22;3.83;;;;;;;5.00;68.06;96785.63;1760688;80;21086;-81
2021/05/08 04:26:45;;;;;;;6.15;4.80;;;;;;;5.00;67.58;96792.07;1717600;83;21217;-81
2021/05/08 04:29:11;;;;;;;5.05;4.12;;;;;;;5.01;67.88;96789.83;1721162;83;21126;-82
2021/05/08 04:31:38;;;;;;;4.78;4.28;;;;;;;5.05;67.94;96796.36;1750569;80;21075;-82
2021/05/08 04:34:04;;;;;;;5.25;4.58;;;;;;;5.11;68.11;96798.38;1771541;80;21301;-81
2021/05/08 04:36:30;;;;;;;5.22;4.28;;;;;;;5.16;67.59;96801.34;1722230;82;21240;-81
2021/05/08 04:38:56;;;;;;;5.45;4.78;;;;;;;5.22;67.94;96802.09;1766057;80;21555;-81
2021/05/08 04:41:22;;;;;;;6.92;4.15;;;;;;;5.26;67.78;96800.86;1715882;82;21358;-81
2021/05/08 04:43:48;;;;;;;5.80;4.37;;;;;;;5.27;67.45;96806.83;1766189;80;21083;-81
2021/05/08 04:46:14;;;;;;;6.20;4.58;;;;;;;5.27;67.13;96807.64;1750095;80;21095;-81
2021/05/08 04:48:40;;;;;;;5.78;4.83;;;;;;;5.26;67.16;96812.45;1704599;82;21073;-82
2021/05/08 04:51:06;;;;;;;6.10;5.00;;;;;;;5.27;67.28;96806.83;1768952;80;21118;-81
2021/05/08 04:53:32;;;;;;;5.42;4.90;;;;;;;5.29;67.44;96808.78;1751589;80;21318;-82
2021/05/08 04:55:59;;;;;;;5.80;5.22;;;;;;;5.33;67.47;96821.72;1688988;82;21118;-81
2021/05/08 04:58:25;;;;;;;5.72;4.70;;;;;;;5.32;67.39;96819.62;1703936;82;21132;-82
2021/05/08 05:00:50;;;;;;;5.85;4.50;;;;;;;5.31;67.36;96823.16;1694761;84;21322;-82
2021/05/08 05:03:17;;;;;;;6.40;4.95;;;;;;;5.36;67.34;96824.83;1749915;80;21107;-82
2021/05/08 05:05:43;;;;;;;6.08;4.95;;;;;;;5.42;67.12;96824.30;1771489;80;21298;-82
2021/05/08 05:08:09;;;;;;;87.35;41.00;;;;;;;5.49;67.10;96821.96;1745048;81;21444;-82
2021/05/08 05:10:34;;;;;;;30.52;16.90;;;;;;;5.54;67.06;96817.70;1759789;81;21301;-82
2021/05/08 05:13:00;;;;;;;24.60;14.00;;;;;;;5.58;67.44;96824.20;1771286;80;21110;-82
2021/05/08 05:15:27;;;;;;;149.75;67.15;;;;;;;5.60;67.02;96823.09;1753535;80;21095;-83
2021/05/08 05:17:54;;;;;;;26.70;22.48;;;;;;;5.64;67.14;96826.20;1767082;80;21063;-82
2021/05/08 05:20:20;;;;;;;13.28;11.90;;;;;;;5.67;66.55;96829.31;1772191;80;21106;-82
2021/05/08 05:22:46;;;;;;;87.27;39.30;;;;;;;5.71;66.89;96830.67;1775897;80;21087;-82
2021/05/08 05:25:12;;;;;;;98.78;42.93;;;;;;;5.77;66.46;96832.34;1757915;80;21086;-82
2021/05/08 05:27:38;;;;;;;39.30;16.97;;;;;;;5.79;66.28;96827.86;1780347;80;21129;-82
2021/05/08 05:30:06;;;;;;;10.60;5.97;;;;;;;5.84;66.22;96835.50;1775911;80;21106;-83
2021/05/08 05:32:33;;;;;;;6.33;4.35;;;;;;;5.87;65.95;96833.95;1764879;80;21429;-82
2021/05/08 05:34:59;;;;;;;5.55;3.83;;;;;;;5.89;66.27;96835.91;1773242;80;21134;-82
2021/05/08 05:37:26;;;;;;;3.72;3.40;;;;;;;5.94;65.85;96841.95;1752811;80;21107;-82
2021/05/08 05:39:52;;;;;;;5.42;3.27;;;;;;;6.00;65.62;96840.09;1770024;80;21233;-80
2021/05/08 05:42:18;;;;;;;4.50;3.25;;;;;;;6.10;65.35;96846.03;1777788;80;21102;-81
2021/05/08 05:44:44;;;;;;;15.30;7.75;;;;;;;6.17;65.34;96845.78;1782553;80;21063;-81
2021/05/08 05:47:20;;;;;;;5.60;3.87;;;;;;;6.26;65.40;96853.16;1777433;80;21117;-80
2021/05/08 05:49:37;;;;;;;5.67;3.52;;;;;;;6.30;65.07;96853.20;1749155;81;21129;-80
2021/05/08 05:52:04;;;;;;;4.90;3.30;;;;;;;6.33;64.79;96864.04;1752507;80;21213;-81
2021/05/08 05:54:30;;;;;;;4.72;3.00;;;;;;;6.36;64.68;96859.58;1783244;80;21556;-81
2021/05/08 05:56:56;;;;;;;4.25;3.02;;;;;;;6.39;64.60;96853.64;1767066;80;21094;-81
2021/05/08 05:59:22;;;;;;;4.87;2.92;;;;;;;6.39;64.80;96852.35;1766713;80;21152;-81
2021/05/08 06:01:48;;;;;;;3.95;2.87;;;;;;;6.41;64.64;96849.14;1751998;80;21098;-81
2021/05/08 06:04:14;;;;;;;3.50;2.22;;;;;;;6.44;64.46;96857.08;1773152;80;21065;-82
2021/05/08 06:06:40;;;;;;;2.55;2.00;;;;;;;6.43;63.70;96857.55;1764471;80;21106;-81
2021/05/08 06:09:06;;;;;;;3.22;2.22;;;;;;;6.48;64.04;96861.80;1761550;80;21094;-81
2021/05/08 06:11:32;;;;;;;4.03;2.85;;;;;;;6.54;63.81;96863.82;1752345;80;21057;-81
2021/05/08 06:13:58;;;;;;;3.35;3.05;;;;;;;6.61;63.63;96864.85;1766132;80;21083;-81
2021/05/08 06:16:23;;;;;;;3.50;2.92;;;;;;;6.63;63.45;96865.52;1761090;80;21150;-81
2021/05/08 06:18:51;;;;;;;3.05;2.72;;;;;;;6.66;63.42;96866.98;1781824;80;21059;-80
2021/05/08 06:21:17;;;;;;;3.90;3.42;;;;;;;6.65;63.83;96868.43;1742157;82;21111;-81
2021/05/08 06:23:44;;;;;;;4.20;3.80;;;;;;;6.62;63.74;96870.83;1758338;80;21091;-81
2021/05/08 06:26:10;;;;;;;6.28;3.42;;;;;;;6.65;63.31;96871.82;1761804;80;21119;-81
2021/05/08 06:28:35;;;;;;;7.45;4.40;;;;;;;6.66;63.16;96872.63;1711283;82;21107;-82
2021/05/08 06:31:02;;;;;;;6.08;3.55;;;;;;;6.81;62.92;96877.64;1690671;83;21141;-81
2021/05/08 06:33:28;;;;;;;10.53;6.37;;;;;;;6.92;63.05;96876.95;1767469;80;21229;-81
2021/05/08 06:35:54;;;;;;;22.75;11.97;;;;;;;6.92;62.99;96881.31;1751860;80;21101;-81
2021/05/08 06:38:20;;;;;;;9.60;5.35;;;;;;;6.85;62.31;96874.64;1745539;80;21329;-81
2021/05/08 06:40:47;;;;;;;3.37;2.20;;;;;;;6.93;62.42;96872.60;1751752;80;21090;-81
2021/05/08 06:43:13;;;;;;;5.40;2.12;;;;;;;7.05;62.03;96870.63;1728693;80;21317;-81
2021/05/08 06:45:39;;;;;;;2.45;1.77;;;;;;;7.17;62.15;96876.72;1707223;82;21108;-81
2021/05/08 06:48:07;;;;;;;3.58;2.72;;;;;;;7.28;62.29;96873.08;1773285;80;21051;-81
2021/05/08 06:50:34;;;;;;;3.85;2.80;;;;;;;7.38;61.15;96875.11;1780128;80;21095;-81
2021/05/08 06:53:01;;;;;;;4.53;2.25;;;;;;;7.30;60.97;96878.91;1768046;80;21126;-81
2021/05/08 06:55:27;;;;;;;2.90;2.42;;;;;;;7.26;61.35;96877.58;1747718;81;21130;-81
2021/05/08 06:57:53;;;;;;;3.83;2.22;;;;;;;7.36;61.35;96878.33;1745609;80;21115;-81
2021/05/08 07:00:20;;;;;;;3.72;3.08;;;;;;;7.50;61.81;96874.40;1701745;82;21133;-81
2021/05/08 07:02:46;;;;;;;2.65;1.92;;;;;;;7.53;61.05;96880.08;1750587;80;21314;-83
2021/05/08 07:05:12;;;;;;;3.22;2.35;;;;;;;7.44;59.46;96883.55;1759095;80;21079;-83
2021/05/08 07:07:38;;;;;;;2.55;2.10;;;;;;;7.23;59.42;96868.36;1751407;80;21126;-83
2021/05/08 07:10:05;;;;;;;4.20;2.20;;;;;;;7.23;60.49;96876.59;1767155;80;21095;-83
2021/05/08 07:12:31;;;;;;;3.25;2.33;;;;;;;7.39;60.33;96878.50;1768151;80;21123;-83
2021/05/08 07:14:57;;;;;;;4.08;2.30;;;;;;;7.62;59.73;96876.24;1779272;80;21062;-82
2021/05/08 07:17:23;;;;;;;2.12;1.92;;;;;;;7.88;59.67;96874.97;1713656;82;21111;-80
2021/05/08 07:19:49;;;;;;;5.47;2.50;;;;;;;8.16;59.66;96865.27;1771640;80;21124;-80
2021/05/08 07:22:16;;;;;;;2.27;2.08;;;;;;;8.35;59.32;96871.04;1758372;80;21083;-80
2021/05/08 07:24:42;;;;;;;2.87;2.10;;;;;;;8.38;59.38;96869.91;1776986;80;21228;-81
2021/05/08 07:27:08;;;;;;;3.02;2.27;;;;;;;8.38;59.44;96872.50;1766366;80;21206;-81
2021/05/08 07:29:34;;;;;;;3.83;2.00;;;;;;;8.24;58.49;96886.00;1770621;80;21099;-81
2021/05/08 07:32:00;;;;;;;2.33;2.12;;;;;;;8.17;58.90;96884.52;1774485;80;21110;-82
2021/05/08 07:34:26;;;;;;;3.65;2.47;;;;;;;8.14;59.13;96883.54;1786863;80;21119;-82
2021/05/08 07:36:52;;;;;;;3.05;2.20;;;;;;;8.15;59.35;96888.23;1768634;80;21324;-81
2021/05/08 07:39:18;;;;;;;3.87;2.30;;;;;;;8.17;59.11;96891.47;1775352;80;21104;-81
2021/05/08 07:41:43;;;;;;;3.92;2.00;;;;;;;8.24;59.92;96884.22;1757719;80;21139;-81
2021/05/08 07:44:09;;;;;;;3.20;1.70;;;;;;;8.31;59.41;96895.59;1755185;81;21102;-81
2021/05/08 07:46:35;;;;;;;3.37;2.17;;;;;;;8.38;58.13;96891.44;1763890;81;21236;-81
2021/05/08 07:49:02;;;;;;;3.12;2.22;;;;;;;8.50;59.38;96892.47;1719593;82;21428;-81
2021/05/08 07:51:27;;;;;;;2.37;1.52;;;;;;;8.70;59.34;96885.56;1757715;81;21102;-82
2021/05/08 07:53:56;;;;;;;5.78;2.45;;;;;;;8.82;57.22;96895.65;1757720;81;21280;-81
2021/05/08 07:56:25;;;;;;;3.15;1.90;;;;;;;8.82;58.02;96888.69;1737593;81;21121;-79
2021/05/08 07:58:51;;;;;;;2.45;1.77;;;;;;;8.82;57.69;96890.47;1754672;81;21223;-80
2021/05/08 08:01:17;;;;;;;3.85;2.20;;;;;;;8.81;58.58;96892.25;1757801;81;21110;-80
2021/05/08 08:03:43;;;;;;;4.10;2.55;;;;;;;8.79;57.35;96895.97;1755370;81;21098;-80
2021/05/08 08:06:09;;;;;;;2.17;1.70;;;;;;;8.60;56.06;96901.71;1750326;81;21090;-80
2021/05/08 08:08:35;;;;;;;2.60;2.22;;;;;;;8.46;56.85;96902.33;1741439;81;21062;-81
2021/05/08 08:11:01;;;;;;;3.10;2.55;;;;;;;8.39;57.12;96904.71;1758674;81;21081;-80
2021/05/08 08:13:27;;;;;;;4.45;3.72;;;;;;;8.29;57.06;96909.64;1754732;81;21065;-80
2021/05/08 08:15:53;;;;;;;8.25;7.17;;;;;;;8.22;57.23;96912.05;1757033;80;21280;-79
2021/05/08 08:18:19;;;;;;;6.25;5.47;;;;;;;8.20;58.01;96915.27;1757491;81;21195;-79
2021/05/08 08:20:45;;;;;;;2.90;2.37;;;;;;;8.18;57.51;96913.32;1753620;81;21126;-80
2021/05/08 08:23:11;;;;;;;4.78;3.98;;;;;;;8.19;57.43;96912.84;1748982;81;21113;-80
2021/05/08 08:25:39;;;;;;;4.10;3.00;;;;;;;8.25;57.81;96917.39;1745831;81;21146;-80
2021/05/08 08:28:05;;;;;;;4.90;3.27;;;;;;;8.64;58.39;96914.70;1747819;81;21304;-80
2021/05/08 08:30:31;;;;;;;3.35;2.70;;;;;;;8.88;57.11;96912.66;1742847;81;21115;-80
2021/05/08 08:32:57;;;;;;;3.92;3.15;;;;;;;9.25;56.28;96920.50;1748032;81;21109;-80
2021/05/08 08:35:23;;;;;;;3.55;2.65;;;;;;;9.49;56.67;96916.66;1748483;81;21350;-79
2021/05/08 08:37:50;;;;;;;5.87;3.80;;;;;;;9.39;55.72;96914.69;1749087;81;21334;-82
2021/05/08 08:40:16;;;;;;;5.37;4.60;;;;;;;9.27;55.61;96912.08;1740099;81;21127;-81
2021/05/08 08:42:42;;;;;;;13.28;12.00;;;;;;;9.16;55.95;96919.70;1739253;81;21127;-81
2021/05/08 08:45:09;;;;;;;4.15;3.75;;;;;;;9.05;56.02;96929.55;1723493;81;21340;-81
2021/05/08 08:47:35;;;;;;;14.23;12.73;;;;;;;9.26;55.67;96918.23;1711799;84;21114;-81
2021/05/08 08:50:11;;;;;;;5.37;4.67;;;;;;;9.61;56.29;96919.75;1748202;81;21321;-82
2021/05/08 08:52:37;;;;;;;5.92;4.47;;;;;;;9.78;55.92;96923.95;1748870;81;21211;-82
2021/05/08 08:55:07;;;;;;;4.12;3.33;;;;;;;9.87;55.61;96929.94;1750316;81;21314;-82
2021/05/08 09:00:15;;;;;;;3.77;3.22;;;;;;;10.13;54.45;96919.36;1838494;77;22667;-82
2021/05/08 09:02:43;;;;;;;3.37;2.95;;;;;;;10.01;53.65;96925.38;1817265;77;21085;-81
2021/05/08 09:05:13;;;;;;;3.00;2.70;;;;;;;9.83;52.72;96925.56;1819184;77;21038;-82
2021/05/08 09:07:43;;;;;;;5.00;3.58;;;;;;;9.61;53.00;96925.75;1803291;77;21092;-82
2021/05/08 09:10:21;;;;;;;5.55;3.77;;;;;;;9.57;54.07;96927.50;1822923;77;21083;-82
2021/05/08 09:12:48;;;;;;;5.35;4.45;;;;;;;9.57;54.20;96930.09;1824864;77;21232;-82
2021/05/08 09:15:14;;;;;;;4.97;3.40;;;;;;;9.55;54.76;96931.56;1815389;77;21099;-82
2021/05/08 09:17:44;;;;;;;5.67;3.95;;;;;;;9.54;55.02;96930.42;1803778;77;21302;-81
2021/05/08 09:20:12;;;;;;;4.30;3.90;;;;;;;9.51;54.96;96936.75;1822792;77;21087;-82
2021/05/08 09:22:41;;;;;;;5.40;4.58;;;;;;;9.53;54.71;96934.00;1760895;81;21271;-81
2021/05/08 09:25:16;;;;;;;4.42;3.72;;;;;;;9.51;55.43;96929.45;1766637;79;21250;-81
2021/05/08 09:27:52;;;;;;;5.37;4.60;;;;;;;9.38;54.27;96927.82;1764101;79;21100;-82
2021/05/08 09:30:29;;;;;;;7.10;4.97;;;;;;;9.28;54.90;96923.61;1751509;80;21216;-82
2021/05/08 09:32:58;;;;;;;3.75;3.40;;;;;;;9.39;54.71;96925.55;1766176;79;21320;-81
2021/05/08 09:35:35;;;;;;;4.87;3.65;;;;;;;9.83;55.78;96926.05;1755115;80;21109;-81
2021/05/08 09:38:18;;;;;;;4.75;3.22;;;;;;;10.15;54.54;96913.52;1741190;80;21209;-81
2021/05/08 09:40:47;;;;;;;4.22;3.75;;;;;;;10.21;53.44;96908.48;1758722;80;21106;-81
2021/05/08 09:43:18;;;;;;;5.03;4.12;;;;;;;10.19;53.30;96908.30;1758396;79;21086;-81
2021/05/08 09:45:47;;;;;;;12.05;7.35;;;;;;;10.12;53.07;96906.87;1760816;80;21111;-81
2021/05/08 09:48:19;;;;;;;5.90;3.50;;;;;;;10.09;53.58;96908.99;1771635;79;21082;-81
2021/05/08 09:50:46;;;;;;;4.42;3.47;;;;;;;10.03;53.45;96914.83;1772244;81;21097;-81
2021/05/08 09:53:13;;;;;;;3.75;3.08;;;;;;;10.01;52.41;96912.88;1749440;80;21113;-81
2021/05/08 09:55:39;;;;;;;3.75;2.80;;;;;;;9.98;53.04;96911.92;1766988;80;21348;-82
2021/05/08 09:58:07;;;;;;;4.15;2.90;;;;;;;9.99;52.74;96920.03;1756894;79;21138;-80
2021/05/08 10:00:37;;;;;;;5.20;3.20;;;;;;;10.08;52.58;96913.83;1747943;81;21098;-80
2021/05/08 10:03:09;;;;;;;4.78;3.60;;;;;;;10.20;52.58;96919.01;1764733;80;21121;-80
2021/05/08 10:05:36;;;;;;;3.08;2.55;;;;;;;10.26;51.91;96914.50;1764495;80;21105;-80
2021/05/08 10:08:03;;;;;;;3.80;2.45;;;;;;;10.35;49.48;96904.88;1744346;80;21122;-80
2021/05/08 10:10:29;;;;;;;4.45;3.12;;;;;;;10.47;50.74;96906.95;1754819;80;21091;-80
2021/05/08 10:12:56;;;;;;;6.72;4.05;;;;;;;10.73;52.20;96910.56;1714495;81;21121;-80
2021/05/08 10:15:23;;;;;;;4.70;4.17;;;;;;;10.99;52.19;96908.18;1755375;80;21253;-80
2021/05/08 10:17:50;;;;;;;3.85;3.05;;;;;;;11.24;52.47;96897.15;1746585;81;21448;-80
2021/05/08 10:20:19;;;;;;;4.62;2.67;;;;;;;11.25;50.49;96894.86;1762894;80;21133;-81
2021/05/08 10:22:57;;;;;;;4.15;2.95;;;;;;;11.27;50.31;96900.20;1749077;80;21102;-81
2021/05/08 10:25:23;;;;;;;3.45;2.60;;;;;;;11.34;50.43;96901.61;1755582;80;21111;-80
2021/05/08 10:27:49;;;;;;;4.60;2.90;;;;;;;11.57;50.25;96907.64;1726095;81;21071;-80
2021/05/08 10:30:22;;;;;;;4.60;2.72;;;;;;;11.86;49.44;96897.80;1742946;80;21110;-80
2021/05/08 10:32:50;;;;;;;3.65;2.22;;;;;;;12.09;48.71;96893.84;1753798;80;21122;-80
2021/05/08 10:35:22;;;;;;;3.52;2.83;;;;;;;12.27;48.67;96881.77;1733933;80;21098;-80
2021/05/08 10:38:21;;;;;;;4.35;2.83;;;;;;;12.09;48.25;96886.03;1732684;80;21098;-81
2021/05/08 10:41:02;;;;;;;4.28;2.83;;;;;;;11.88;47.47;96884.63;1741083;80;21128;-81
2021/05/08 10:43:51;;;;;;;2.95;2.47;;;;;;;11.54;47.63;96904.05;1756571;80;21108;-81
2021/05/08 10:46:18;;;;;;;3.47;2.60;;;;;;;11.24;46.69;96898.45;1763626;80;21229;-80
2021/05/08 10:49:10;;;;;;;3.65;2.98;;;;;;;11.10;48.00;96900.00;1761813;80;21102;-81
2021/05/08 10:51:57;;;;;;;4.30;3.40;;;;;;;10.98;48.83;96900.88;1735696;81;21087;-80
2021/05/08 10:54:44;;;;;;;6.33;2.95;;;;;;;10.91;48.97;96912.14;1747677;79;21092;-80
2021/05/08 10:57:20;;;;;;;6.83;3.98;;;;;;;10.85;49.33;96913.61;1744806;80;21100;-80
2021/05/08 11:00:09;;;;;;;3.70;3.00;;;;;;;10.78;49.58;96920.48;1741897;79;21153;-80
2021/05/08 11:02:47;;;;;;;4.85;3.45;;;;;;;10.71;49.83;96923.41;1759277;81;21102;-80
2021/05/08 11:05:24;;;;;;;3.75;3.12;;;;;;;10.66;49.73;96925.72;1740646;80;21245;-80
2021/05/08 11:07:49;;;;;;;7.15;3.33;;;;;;;10.60;49.98;96929.81;1739847;81;21074;-80
2021/05/08 11:10:37;;;;;;;4.40;2.83;;;;;;;10.80;50.37;96925.02;1758334;80;21117;-80
2021/05/08 11:13:18;;;;;;;3.50;2.92;;;;;;;11.10;50.20;96916.41;1758581;80;21444;-80
2021/05/08 11:15:55;;;;;;;3.95;2.95;;;;;;;11.41;49.76;96905.16;1758122;80;21086;-81
2021/05/08 11:18:41;;;;;;;3.47;3.15;;;;;;;11.74;49.76;96896.59;1741115;81;21160;-80
2021/05/08 11:21:18;;;;;;;4.22;3.35;;;;;;;12.11;49.94;96898.87;1739231;80;21090;-81
2021/05/08 11:23:57;;;;;;;4.30;3.20;;;;;;;12.28;47.88;96902.44;1739668;80;21066;-80
2021/05/08 11:26:29;;;;;;;3.47;2.70;;;;;;;12.19;47.86;96895.67;1740279;80;21089;-80
2021/05/08 11:29:19;;;;;;;3.77;2.60;;;;;;;12.21;47.08;96894.23;1740115;80;21137;-80
2021/05/08 11:31:50;;;;;;;3.22;2.60;;;;;;;12.12;46.67;96891.37;1739320;81;21113;-81
2021/05/08 11:34:22;;;;;;;5.05;2.85;;;;;;;12.12;46.65;96887.47;1741779;80;21102;-80
2021/05/08 11:36:59;;;;;;;;;;;;;;;12.17;46.94;96887.23;1761005;80;21089;-81
2021/05/08 11:39:42;;;;;;;3.92;2.50;;;;;;;12.35;46.11;96882.16;1758125;80;20209;-80
2021/05/08 11:42:20;;;;;;;3.08;2.42;;;;;;;12.55;45.29;96877.54;1761397;80;21094;-81
2021/05/08 11:44:53;;;;;;;2.47;2.15;;;;;;;12.82;44.58;96876.53;1739092;81;21106;-80
2021/05/08 11:50:07;;;;;;;4.05;2.40;;;;;;;12.92;43.51;96882.27;1739279;80;20115;-80